sensor_id;sensor_type;location;lat;lon;timestamp;pressure;altitude;pressure_sealevel;temperature;humidity
11041;BME280;5573;49.592;8.662;2023-04-26T00:01:22;99996.06;;;4.31;100.00
11041;BME280;5573;49.592;8.662;2023-04-26T00:03:53;100001.06;;;4.28;100.00
11041;BME280;5573;49.592;8.662;2023-04-26T00:06:22;100000.22;;;4.16;100.00
11041;BME280;5573;49.592;8.662;2023-04-26T00:08:49;99996.97;;;4.01;100.00
11041;BME280;5573;49.592;8.662;2023-04-26T00:11:17;100003.41;;;3.97;100.00
11041;BME280;5573;49.592;8.662;2023-04-26T00:13:45;99998.97;;;3.92;100.00
11041;BME280;5573;49.592;8.662;2023-04-26T00:16:13;100003.13;;;3.90;100.00
11041;BME280;5573;49.592;8.662;2023-04-26T00:18:43;99998.34;;;3.86;100.00
11041;BME280;5573;49.592;8.662;2023-04-26T00:21:11;99978.38;;;3.61;100.00
11041;BME280;5573;49.592;8.662;2023-04-26T00:23:39;100008.47;;;3.77;100.00
11041;BME280;5573;49.592;8.662;2023-04-26T00:26:07;100003.03;;;3.77;100.00
11041;BME280;5573;49.592;8.662;2023-04-26T00:28:35;100011.28;;;3.90;100.00
11041;BME280;5573;49.592;8.662;2023-04-26T00:31:03;100008.94;;;3.79;100.00
11041;BME280;5573;49.592;8.662;2023-04-26T00:33:30;100003.88;;;3.78;100.00
11041;BME280;5573;49.592;8.662;2023-04-26T00:35:59;100009.16;;;3.74;100.00
11041;BME280;5573;49.592;8.662;2023-04-26T00:38:27;100003.78;;;3.65;100.00
11041;BME280;5573;49.592;8.662;2023-04-26T00:40:55;100005.41;;;3.58;100.00
11041;BME280;5573;49.592;8.662;2023-04-26T00:43:22;100006.34;;;3.62;100.00
11041;BME280;5573;49.592;8.662;2023-04-26T00:45:50;99998.03;;;3.67;100.00
11041;BME280;5573;49.592;8.662;2023-04-26T00:48:19;100005.25;;;3.63;100.00
11041;BME280;5573;49.592;8.662;2023-04-26T00:50:47;100013.25;;;3.59;100.00
11041;BME280;5573;49.592;8.662;2023-04-26T00:53:16;100017.28;;;3.53;100.00
11041;BME280;5573;49.592;8.662;2023-04-26T00:55:44;100011.59;;;3.46;100.00
11041;BME280;5573;49.592;8.662;2023-04-26T00:58:12;100013.69;;;3.40;100.00
11041;BME280;5573;49.592;8.662;2023-04-26T01:00:40;100012.44;;;3.38;100.00
11041;BME280;5573;49.592;8.662;2023-04-26T01:03:08;100009.72;;;3.38;100.00
11041;BME280;5573;49.592;8.662;2023-04-26T01:05:36;100010.81;;;3.37;100.00
11041;BME280;5573;49.592;8.662;2023-04-26T01:08:05;100014.22;;;3.34;100.00
11041;BME280;5573;49.592;8.662;2023-04-26T01:10:34;100011.19;;;3.26;100.00
11041;BME280;5573;49.592;8.662;2023-04-26T01:13:02;100009.94;;;3.24;100.00
11041;BME280;5573;49.592;8.662;2023-04-26T01:15:31;100011.19;;;3.26;100.00
11041;BME280;5573;49.592;8.662;2023-04-26T01:17:59;100015.03;;;3.25;100.00
11041;BME280;5573;49.592;8.662;2023-04-26T01:20:27;100021.47;;;3.21;100.00
11041;BME280;5573;49.592;8.662;2023-04-26T01:22:56;100015.69;;;3.22;100.00
11041;BME280;5573;49.592;8.662;2023-04-26T01:25:24;100018.59;;;3.17;100.00
11041;BME280;5573;49.592;8.662;2023-04-26T01:27:52;100012.38;;;3.17;100.00
11041;BME280;5573;49.592;8.662;2023-04-26T01:30:24;100006.00;;;3.13;100.00
11041;BME280;5573;49.592;8.662;2023-04-26T01:32:51;100011.44;;;3.13;100.00
11041;BME280;5573;49.592;8.662;2023-04-26T01:35:19;100008.41;;;3.05;100.00
11041;BME280;5573;49.592;8.662;2023-04-26T01:37:47;100007.28;;;3.07;100.00
11041;BME280;5573;49.592;8.662;2023-04-26T01:40:16;100003.16;;;3.00;100.00
11041;BME280;5573;49.592;8.662;2023-04-26T01:42:44;100007.31;;;2.98;100.00
11041;BME280;5573;49.592;8.662;2023-04-26T01:45:12;100000.31;;;2.88;100.00
11041;BME280;5573;49.592;8.662;2023-04-26T01:47:59;100006.06;;;2.87;100.00
11041;BME280;5573;49.592;8.662;2023-04-26T01:50:30;99996.38;;;2.77;100.00
11041;BME280;5573;49.592;8.662;2023-04-26T01:52:58;100001.63;;;2.82;100.00
11041;BME280;5573;49.592;8.662;2023-04-26T01:55:27;100002.91;;;2.76;100.00
11041;BME280;5573;49.592;8.662;2023-04-26T01:57:55;100001.50;;;2.70;100.00
11041;BME280;5573;49.592;8.662;2023-04-26T02:00:22;99997.34;;;2.63;100.00
11041;BME280;5573;49.592;8.662;2023-04-26T02:02:53;99982.22;;;2.54;100.00
11041;BME280;5573;49.592;8.662;2023-04-26T02:05:47;99994.19;;;2.53;100.00
11041;BME280;5573;49.592;8.662;2023-04-26T02:08:15;99991.00;;;2.51;100.00
11041;BME280;5573;49.592;8.662;2023-04-26T02:10:44;99987.97;;;2.52;100.00
11041;BME280;5573;49.592;8.662;2023-04-26T02:13:11;99985.91;;;2.49;100.00
11041;BME280;5573;49.592;8.662;2023-04-26T02:15:39;99999.97;;;2.51;100.00
11041;BME280;5573;49.592;8.662;2023-04-26T02:18:07;100000.59;;;2.48;100.00
11041;BME280;5573;49.592;8.662;2023-04-26T02:20:37;99997.88;;;2.48;100.00
11041;BME280;5573;49.592;8.662;2023-04-26T02:23:08;100000.13;;;2.46;100.00
11041;BME280;5573;49.592;8.662;2023-04-26T02:25:37;99996.44;;;2.42;100.00
11041;BME280;5573;49.592;8.662;2023-04-26T02:28:06;99988.47;;;2.37;100.00
11041;BME280;5573;49.592;8.662;2023-04-26T02:30:34;100003.31;;;2.48;100.00
11041;BME280;5573;49.592;8.662;2023-04-26T02:33:02;100000.13;;;2.46;100.00
11041;BME280;5573;49.592;8.662;2023-04-26T02:35:30;100001.41;;;2.40;100.00
11041;BME280;5573;49.592;8.662;2023-04-26T02:37:58;99992.97;;;2.33;100.00
11041;BME280;5573;49.592;8.662;2023-04-26T02:40:26;99999.00;;;2.30;100.00
11041;BME280;5573;49.592;8.662;2023-04-26T02:42:55;99987.06;;;2.31;100.00
11041;BME280;5573;49.592;8.662;2023-04-26T02:45:24;99988.31;;;2.33;100.00
11041;BME280;5573;49.592;8.662;2023-04-26T02:47:52;99996.91;;;2.44;100.00
11041;BME280;5573;49.592;8.662;2023-04-26T02:50:20;99987.97;;;2.52;100.00
11041;BME280;5573;49.592;8.662;2023-04-26T02:52:49;99990.34;;;2.62;100.00
11041;BME280;5573;49.592;8.662;2023-04-26T02:55:16;99992.22;;;2.71;100.00
11041;BME280;5573;49.592;8.662;2023-04-26T02:57:44;99992.25;;;2.62;100.00
11041;BME280;5573;49.592;8.662;2023-04-26T03:00:12;99991.47;;;2.61;100.00
11041;BME280;5573;49.592;8.662;2023-04-26T03:02:41;99987.78;;;2.66;100.00
11041;BME280;5573;49.592;8.662;2023-04-26T03:05:09;99997.00;;;2.74;100.00
11041;BME280;5573;49.592;8.662;2023-04-26T03:07:37;99997.47;;;2.76;100.00
11041;BME280;5573;49.592;8.662;2023-04-26T03:10:06;99996.06;;;2.70;100.00
11041;BME280;5573;49.592;8.662;2023-04-26T03:12:34;100000.38;;;2.71;100.00
11041;BME280;5573;49.592;8.662;2023-04-26T03:15:02;100006.44;;;2.68;100.00
11041;BME280;5573;49.592;8.662;2023-04-26T03:17:30;100005.19;;;2.65;100.00
11041;BME280;5573;49.592;8.662;2023-04-26T03:19:59;99998.00;;;2.60;100.00
11041;BME280;5573;49.592;8.662;2023-04-26T03:22:28;100006.34;;;2.55;100.00
11041;BME280;5573;49.592;8.662;2023-04-26T03:24:56;99999.97;;;2.34;100.00
11041;BME280;5573;49.592;8.662;2023-04-26T03:27:26;99994.53;;;2.34;100.00
11041;BME280;5573;49.592;8.662;2023-04-26T03:29:54;99996.28;;;2.47;100.00
11041;BME280;5573;49.592;8.662;2023-04-26T03:32:22;100002.50;;;2.48;100.00
11041;BME280;5573;49.592;8.662;2023-04-26T03:34:50;100001.09;;;2.41;100.00
11041;BME280;5573;49.592;8.662;2023-04-26T03:37:19;100006.06;;;2.31;100.00
11041;BME280;5573;49.592;8.662;2023-04-26T03:39:55;99999.66;;;2.27;100.00
11041;BME280;5573;49.592;8.662;2023-04-26T03:42:23;99999.69;;;2.18;100.00
11041;BME280;5573;49.592;8.662;2023-04-26T03:44:51;100002.38;;;2.18;100.00
11041;BME280;5573;49.592;8.662;2023-04-26T03:47:20;99999.53;;;1.97;100.00
11041;BME280;5573;49.592;8.662;2023-04-26T03:49:49;99984.22;;;1.83;100.00
11041;BME280;5573;49.592;8.662;2023-04-26T03:52:18;99997.59;;;1.97;100.00
11041;BME280;5573;49.592;8.662;2023-04-26T03:54:46;99992.34;;;2.01;100.00
11041;BME280;5573;49.592;8.662;2023-04-26T03:57:14;100005.13;;;2.00;100.00
11041;BME280;5573;49.592;8.662;2023-04-26T03:59:42;99999.03;;;1.95;100.00
11041;BME280;5573;49.592;8.662;2023-04-26T04:02:10;100003.50;;;1.91;100.00
11041;BME280;5573;49.592;8.662;2023-04-26T04:04:39;99997.59;;;1.89;100.00
11041;BME280;5573;49.592;8.662;2023-04-26T04:07:07;99996.63;;;1.85;100.00
11041;BME280;5573;49.592;8.662;2023-04-26T04:09:36;99998.56;;;1.84;100.00
11041;BME280;5573;49.592;8.662;2023-04-26T04:12:04;99999.19;;;1.90;100.00
11041;BME280;5573;49.592;8.662;2023-04-26T04:14:32;99993.75;;;1.90;100.00
11041;BME280;5573;49.592;8.662;2023-04-26T04:17:00;99996.94;;;1.92;100.00
11041;BME280;5573;49.592;8.662;2023-04-26T04:19:28;99990.56;;;1.88;100.00
11041;BME280;5573;49.592;8.662;2023-04-26T04:21:57;99996.34;;;1.77;100.00
11041;BME280;5573;49.592;8.662;2023-04-26T04:24:24;100003.19;;;1.83;100.00
11041;BME280;5573;49.592;8.662;2023-04-26T04:26:54;100001.28;;;1.84;100.00
11041;BME280;5573;49.592;8.662;2023-04-26T04:29:21;100004.47;;;1.95;100.00
11041;BME280;5573;49.592;8.662;2023-04-26T04:31:49;100004.78;;;1.93;100.00
11041;BME280;5573;49.592;8.662;2023-04-26T04:34:17;100007.00;;;1.91;100.00
11041;BME280;5573;49.592;8.662;2023-04-26T04:36:45;100008.94;;;1.73;100.00
11041;BME280;5573;49.592;8.662;2023-04-26T04:39:13;100009.22;;;1.72;100.00
11041;BME280;5573;49.592;8.662;2023-04-26T04:41:44;100008.56;;;1.66;100.00
11041;BME280;5573;49.592;8.662;2023-04-26T04:44:17;100015.63;;;1.76;100.00
11041;BME280;5573;49.592;8.662;2023-04-26T04:46:44;100010.50;;;1.83;100.00
11041;BME280;5573;49.592;8.662;2023-04-26T04:49:13;100006.41;;;1.94;100.00
11041;BME280;5573;49.592;8.662;2023-04-26T04:51:41;100021.41;;;2.00;100.00
11041;BME280;5573;49.592;8.662;2023-04-26T04:54:10;99972.38;;;1.71;100.00
11041;BME280;5573;49.592;8.662;2023-04-26T04:56:38;100029.03;;;1.90;100.00
11041;BME280;5573;49.592;8.662;2023-04-26T04:59:07;100033.53;;;1.94;100.00
11041;BME280;5573;49.592;8.662;2023-04-26T05:01:36;100027.13;;;2.08;100.00
11041;BME280;5573;49.592;8.662;2023-04-26T05:04:09;100018.69;;;2.09;100.00
11041;BME280;5573;49.592;8.662;2023-04-26T05:06:37;100037.69;;;2.18;100.00
11041;BME280;5573;49.592;8.662;2023-04-26T05:09:05;100041.34;;;2.22;100.00
11041;BME280;5573;49.592;8.662;2023-04-26T05:11:34;100041.66;;;2.20;100.00
11041;BME280;5573;49.592;8.662;2023-04-26T05:14:03;100050.13;;;2.19;100.00
11041;BME280;5573;49.592;8.662;2023-04-26T05:16:31;100045.31;;;2.33;100.00
11041;BME280;5573;49.592;8.662;2023-04-26T05:19:02;100049.97;;;2.33;100.00
11041;BME280;5573;49.592;8.662;2023-04-26T05:21:33;99997.13;;;1.95;100.00
11041;BME280;5573;49.592;8.662;2023-04-26T05:24:01;100051.41;;;2.39;100.00
11041;BME280;5573;49.592;8.662;2023-04-26T05:26:29;100054.28;;;2.51;100.00
11041;BME280;5573;49.592;8.662;2023-04-26T05:29:27;100056.16;;;2.68;100.00
11041;BME280;5573;49.592;8.662;2023-04-26T05:32:04;100054.69;;;2.79;100.00
11041;BME280;5573;49.592;8.662;2023-04-26T05:34:45;100057.06;;;2.90;100.00
11041;BME280;5573;49.592;8.662;2023-04-26T05:37:15;100060.53;;;2.99;100.00
11041;BME280;5573;49.592;8.662;2023-04-26T05:39:43;100061.47;;;3.12;100.00
11041;BME280;5573;49.592;8.662;2023-04-26T05:42:11;100058.06;;;3.23;100.00
11041;BME280;5573;49.592;8.662;2023-04-26T05:44:42;100061.22;;;3.34;100.00
11041;BME280;5573;49.592;8.662;2023-04-26T05:47:11;100067.88;;;3.54;100.00
11041;BME280;5573;49.592;8.662;2023-04-26T05:49:38;100068.09;;;3.70;100.00
11041;BME280;5573;49.592;8.662;2023-04-26T05:52:07;100065.44;;;3.82;100.00
11041;BME280;5573;49.592;8.662;2023-04-26T05:54:36;100065.66;;;3.98;100.00
11041;BME280;5573;49.592;8.662;2023-04-26T05:57:04;100068.91;;;4.13;100.00
11041;BME280;5573;49.592;8.662;2023-04-26T05:59:34;100066.72;;;4.27;100.00
11041;BME280;5573;49.592;8.662;2023-04-26T06:02:03;100065.88;;;4.35;100.00
11041;BME280;5573;49.592;8.662;2023-04-26T06:04:31;100067.88;;;4.47;100.00
11041;BME280;5573;49.592;8.662;2023-04-26T06:07:04;100079.06;;;4.66;100.00
11041;BME280;5573;49.592;8.662;2023-04-26T06:09:34;100080.22;;;4.78;100.00
11041;BME280;5573;49.592;8.662;2023-04-26T06:12:02;100078.47;;;4.94;100.00
11041;BME280;5573;49.592;8.662;2023-04-26T06:14:33;100081.88;;;5.03;100.00
11041;BME280;5573;49.592;8.662;2023-04-26T06:17:06;100087.50;;;5.19;100.00
11041;BME280;5573;49.592;8.662;2023-04-26T06:19:34;100090.00;;;5.37;100.00
11041;BME280;5573;49.592;8.662;2023-04-26T06:22:02;100087.88;;;5.42;100.00
11041;BME280;5573;49.592;8.662;2023-04-26T06:24:30;100094.00;;;5.64;100.00
11041;BME280;5573;49.592;8.662;2023-04-26T06:26:59;100102.84;;;5.73;100.00
11041;BME280;5573;49.592;8.662;2023-04-26T06:29:27;100096.50;;;5.94;100.00
11041;BME280;5573;49.592;8.662;2023-04-26T06:31:54;100091.38;;;6.04;100.00
11041;BME280;5573;49.592;8.662;2023-04-26T06:34:24;100100.13;;;6.22;100.00
11041;BME280;5573;49.592;8.662;2023-04-26T06:36:52;100102.00;;;6.34;100.00
11041;BME280;5573;49.592;8.662;2023-04-26T06:39:22;100102.22;;;6.41;100.00
11041;BME280;5573;49.592;8.662;2023-04-26T06:41:50;100110.84;;;6.56;100.00
11041;BME280;5573;49.592;8.662;2023-04-26T06:44:32;100105.38;;;6.56;100.00
11041;BME280;5573;49.592;8.662;2023-04-26T06:47:03;100095.19;;;6.68;100.00
11041;BME280;5573;49.592;8.662;2023-04-26T06:49:34;100097.41;;;6.79;100.00
11041;BME280;5573;49.592;8.662;2023-04-26T06:52:02;100099.69;;;7.05;100.00
11041;BME280;5573;49.592;8.662;2023-04-26T06:54:34;100097.41;;;7.23;100.00
11041;BME280;5573;49.592;8.662;2023-04-26T06:57:15;100085.25;;;7.36;100.00
11041;BME280;5573;49.592;8.662;2023-04-26T06:59:44;100090.25;;;7.50;100.00
11041;BME280;5573;49.592;8.662;2023-04-26T07:02:12;100092.31;;;7.88;98.91
11041;BME280;5573;49.592;8.662;2023-04-26T07:04:41;100094.84;;;8.13;97.04
11041;BME280;5573;49.592;8.662;2023-04-26T07:07:09;100100.69;;;8.47;93.18
11041;BME280;5573;49.592;8.662;2023-04-26T07:09:39;100093.31;;;8.70;89.29
11041;BME280;5573;49.592;8.662;2023-04-26T07:12:07;100099.13;;;9.08;88.45
11041;BME280;5573;49.592;8.662;2023-04-26T07:14:37;100094.91;;;9.14;86.43
11041;BME280;5573;49.592;8.662;2023-04-26T07:17:08;100096.28;;;9.04;84.09
11041;BME280;5573;49.592;8.662;2023-04-26T07:19:35;100091.28;;;8.87;80.64
11041;BME280;5573;49.592;8.662;2023-04-26T07:22:04;100091.31;;;8.67;82.15
11041;BME280;5573;49.592;8.662;2023-04-26T07:24:31;100091.09;;;8.57;82.61
11041;BME280;5573;49.592;8.662;2023-04-26T07:26:59;100096.78;;;8.67;84.25
11041;BME280;5573;49.592;8.662;2023-04-26T07:29:27;100098.22;;;8.81;83.86
11041;BME280;5573;49.592;8.662;2023-04-26T07:31:55;100097.16;;;9.08;81.94
11041;BME280;5573;49.592;8.662;2023-04-26T07:34:25;100110.66;;;9.40;78.17
11041;BME280;5573;49.592;8.662;2023-04-26T07:36:53;100102.81;;;9.65;78.31
11041;BME280;5573;49.592;8.662;2023-04-26T07:39:21;100107.41;;;9.81;76.86
11041;BME280;5573;49.592;8.662;2023-04-26T07:41:49;100105.47;;;9.58;80.72
11041;BME280;5573;49.592;8.662;2023-04-26T07:44:17;100099.22;;;9.61;78.07
11041;BME280;5573;49.592;8.662;2023-04-26T07:46:44;100105.97;;;9.41;82.40
11041;BME280;5573;49.592;8.662;2023-04-26T07:49:12;100094.16;;;9.63;81.87
11041;BME280;5573;49.592;8.662;2023-04-26T07:51:43;100099.69;;;10.16;75.82
11041;BME280;5573;49.592;8.662;2023-04-26T07:54:11;100100.03;;;10.42;74.17
11041;BME280;5573;49.592;8.662;2023-04-26T07:56:39;100103.78;;;10.94;70.50
11041;BME280;5573;49.592;8.662;2023-04-26T07:59:06;100100.00;;;10.72;75.17
11041;BME280;5573;49.592;8.662;2023-04-26T08:01:35;100106.53;;;10.60;70.90
11041;BME280;5573;49.592;8.662;2023-04-26T08:04:03;100106.22;;;10.35;77.73
11041;BME280;5573;49.592;8.662;2023-04-26T08:06:32;100101.44;;;10.58;71.56
11041;BME280;5573;49.592;8.662;2023-04-26T08:09:01;100104.56;;;10.57;75.61
11041;BME280;5573;49.592;8.662;2023-04-26T08:11:30;100105.09;;;10.70;65.80
11041;BME280;5573;49.592;8.662;2023-04-26T08:13:58;100112.13;;;11.01;68.32
11041;BME280;5573;49.592;8.662;2023-04-26T08:16:26;100103.19;;;11.11;65.20
11041;BME280;5573;49.592;8.662;2023-04-26T08:18:54;100111.47;;;11.15;65.06
11041;BME280;5573;49.592;8.662;2023-04-26T08:21:28;100110.66;;;11.52;63.72
11041;BME280;5573;49.592;8.662;2023-04-26T08:23:56;100109.22;;;11.28;63.72
11041;BME280;5573;49.592;8.662;2023-04-26T08:26:25;100114.09;;;11.01;60.75
11041;BME280;5573;49.592;8.662;2023-04-26T08:28:53;100110.69;;;11.14;63.20
11041;BME280;5573;49.592;8.662;2023-04-26T08:31:22;100107.94;;;11.59;62.58
11041;BME280;5573;49.592;8.662;2023-04-26T08:33:50;100100.72;;;11.44;57.17
11041;BME280;5573;49.592;8.662;2023-04-26T08:36:18;100098.44;;;11.49;59.51
11041;BME280;5573;49.592;8.662;2023-04-26T08:38:47;100105.03;;;11.41;57.32
11041;BME280;5573;49.592;8.662;2023-04-26T08:41:20;100092.84;;;11.42;57.97
11041;BME280;5573;49.592;8.662;2023-04-26T08:43:50;100098.25;;;11.79;57.32
11041;BME280;5573;49.592;8.662;2023-04-26T08:46:18;100093.00;;;11.60;57.21
11041;BME280;5573;49.592;8.662;2023-04-26T08:48:53;100096.00;;;11.92;56.07
11041;BME280;5573;49.592;8.662;2023-04-26T08:51:26;100095.25;;;11.95;55.61
11041;BME280;5573;49.592;8.662;2023-04-26T08:53:56;100086.56;;;11.90;53.93
11041;BME280;5573;49.592;8.662;2023-04-26T08:56:25;100082.53;;;11.32;50.40
11041;BME280;5573;49.592;8.662;2023-04-26T08:58:55;100081.13;;;12.04;53.13
11041;BME280;5573;49.592;8.662;2023-04-26T09:01:24;100078.97;;;12.49;53.00
11041;BME280;5573;49.592;8.662;2023-04-26T09:03:53;100090.97;;;12.96;51.91
11041;BME280;5573;49.592;8.662;2023-04-26T09:06:23;100086.66;;;13.28;47.48
11041;BME280;5573;49.592;8.662;2023-04-26T09:08:54;100085.53;;;13.47;44.21
11041;BME280;5573;49.592;8.662;2023-04-26T09:11:22;100078.03;;;13.44;42.39
11041;BME280;5573;49.592;8.662;2023-04-26T09:13:50;100085.94;;;13.49;41.36
11041;BME280;5573;49.592;8.662;2023-04-26T09:16:33;100077.66;;;13.52;41.64
11041;BME280;5573;49.592;8.662;2023-04-26T09:19:01;100069.31;;;13.09;40.57
11041;BME280;5573;49.592;8.662;2023-04-26T09:21:29;100075.59;;;13.13;47.04
11041;BME280;5573;49.592;8.662;2023-04-26T09:23:57;100065.00;;;13.51;45.28
11041;BME280;5573;49.592;8.662;2023-04-26T09:26:27;100072.91;;;13.49;44.86
11041;BME280;5573;49.592;8.662;2023-04-26T09:29:11;100066.16;;;13.25;44.87
11041;BME280;5573;49.592;8.662;2023-04-26T09:31:42;100073.22;;;13.15;45.19
11041;BME280;5573;49.592;8.662;2023-04-26T09:34:14;100065.38;;;13.53;42.81
11041;BME280;5573;49.592;8.662;2023-04-26T09:36:49;100064.63;;;13.56;38.84
11041;BME280;5573;49.592;8.662;2023-04-26T09:39:33;100063.38;;;13.82;42.04
11041;BME280;5573;49.592;8.662;2023-04-26T09:42:02;100061.81;;;13.78;40.30
11041;BME280;5573;49.592;8.662;2023-04-26T09:44:31;100069.34;;;13.41;40.50
11041;BME280;5573;49.592;8.662;2023-04-26T09:47:04;100060.22;;;13.98;41.67
11041;BME280;5573;49.592;8.662;2023-04-26T09:49:45;100024.13;;;14.34;43.26
11041;BME280;5573;49.592;8.662;2023-04-26T09:52:14;100059.53;;;14.75;43.08
11041;BME280;5573;49.592;8.662;2023-04-26T09:54:44;100074.66;;;14.53;42.18
11041;BME280;5573;49.592;8.662;2023-04-26T09:57:13;100076.00;;;14.05;43.26
11041;BME280;5573;49.592;8.662;2023-04-26T09:59:43;100062.31;;;14.75;41.96
11041;BME280;5573;49.592;8.662;2023-04-26T10:02:18;100055.78;;;14.22;41.05
11041;BME280;5573;49.592;8.662;2023-04-26T10:04:47;100055.03;;;14.08;43.23
11041;BME280;5573;49.592;8.662;2023-04-26T10:07:17;100061.41;;;13.94;44.60
11041;BME280;5573;49.592;8.662;2023-04-26T10:09:45;100045.44;;;14.37;43.64
11041;BME280;5573;49.592;8.662;2023-04-26T10:12:16;100053.34;;;14.42;41.46
11041;BME280;5573;49.592;8.662;2023-04-26T10:14:44;100051.19;;;13.73;41.30
11041;BME280;5573;49.592;8.662;2023-04-26T10:17:13;100047.03;;;14.38;44.81
11041;BME280;5573;49.592;8.662;2023-04-26T10:19:43;100042.09;;;13.65;42.13
11041;BME280;5573;49.592;8.662;2023-04-26T10:22:16;100045.22;;;13.78;42.02
11041;BME280;5573;49.592;8.662;2023-04-26T10:24:48;100036.06;;;14.17;43.41
11041;BME280;5573;49.592;8.662;2023-04-26T10:27:16;100027.34;;;14.22;42.86
11041;BME280;5573;49.592;8.662;2023-04-26T10:30:05;100033.59;;;14.40;41.49
11041;BME280;5573;49.592;8.662;2023-04-26T10:36:04;100045.75;;;14.64;40.90
11041;BME280;5573;49.592;8.662;2023-04-26T10:38:33;100047.75;;;14.53;40.77
11041;BME280;5573;49.592;8.662;2023-04-26T10:41:27;100041.47;;;14.49;42.90
11041;BME280;5573;49.592;8.662;2023-04-26T10:43:58;100033.53;;;14.55;41.35
11041;BME280;5573;49.592;8.662;2023-04-26T10:46:37;99960.53;;;14.23;42.06
11041;BME280;5573;49.592;8.662;2023-04-26T10:49:16;100041.41;;;15.27;41.52
11041;BME280;5573;49.592;8.662;2023-04-26T10:52:08;100029.47;;;15.78;39.95
11041;BME280;5573;49.592;8.662;2023-04-26T10:54:50;100027.56;;;15.72;41.61
11041;BME280;5573;49.592;8.662;2023-04-26T10:57:18;100013.78;;;15.61;41.83
11041;BME280;5573;49.592;8.662;2023-04-26T11:03:09;100012.66;;;15.06;40.82
11041;BME280;5573;49.592;8.662;2023-04-26T11:05:41;100006.53;;;14.77;44.00
11041;BME280;5573;49.592;8.662;2023-04-26T11:08:16;100002.88;;;14.17;42.07
11041;BME280;5573;49.592;8.662;2023-04-26T11:10:49;100006.03;;;14.12;45.12
11041;BME280;5573;49.592;8.662;2023-04-26T11:13:17;100006.69;;;14.44;43.42
11041;BME280;5573;49.592;8.662;2023-04-26T11:15:46;100001.13;;;14.59;42.90
11041;BME280;5573;49.592;8.662;2023-04-26T11:18:18;99994.13;;;14.26;43.56
11041;BME280;5573;49.592;8.662;2023-04-26T11:20:47;100003.06;;;14.58;43.07
11041;BME280;5573;49.592;8.662;2023-04-26T11:23:18;99991.44;;;14.89;41.40
11041;BME280;5573;49.592;8.662;2023-04-26T11:25:46;99990.75;;;14.70;42.83
11041;BME280;5573;49.592;8.662;2023-04-26T11:28:14;99988.88;;;15.09;42.91
11041;BME280;5573;49.592;8.662;2023-04-26T11:30:42;99989.66;;;15.09;41.83
11041;BME280;5573;49.592;8.662;2023-04-26T11:33:15;99991.50;;;14.78;41.88
11041;BME280;5573;49.592;8.662;2023-04-26T11:35:44;99989.38;;;14.22;41.81
11041;BME280;5573;49.592;8.662;2023-04-26T11:38:13;99977.03;;;14.45;42.92
11041;BME280;5573;49.592;8.662;2023-04-26T11:40:42;99968.06;;;14.90;44.40
11041;BME280;5573;49.592;8.662;2023-04-26T11:43:10;99964.09;;;15.36;42.13
11041;BME280;5573;49.592;8.662;2023-04-26T11:45:39;99966.38;;;15.48;43.42
11041;BME280;5573;49.592;8.662;2023-04-26T11:48:09;99972.94;;;15.23;42.17
11041;BME280;5573;49.592;8.662;2023-04-26T11:50:38;99977.88;;;15.47;42.20
11041;BME280;5573;49.592;8.662;2023-04-26T11:53:07;99979.06;;;15.00;38.65
11041;BME280;5573;49.592;8.662;2023-04-26T11:55:35;99981.06;;;14.96;39.22
11041;BME280;5573;49.592;8.662;2023-04-26T11:58:11;99969.22;;;14.22;39.21
11041;BME280;5573;49.592;8.662;2023-04-26T12:00:55;99967.16;;;14.40;41.40
11041;BME280;5573;49.592;8.662;2023-04-26T12:03:28;99967.72;;;14.07;38.88
11041;BME280;5573;49.592;8.662;2023-04-26T12:05:56;99954.97;;;14.27;39.90
11041;BME280;5573;49.592;8.662;2023-04-26T12:08:24;99963.59;;;14.43;40.33
11041;BME280;5573;49.592;8.662;2023-04-26T12:10:53;99966.91;;;14.83;41.82
11041;BME280;5573;49.592;8.662;2023-04-26T12:13:23;99969.97;;;15.00;39.52
11041;BME280;5573;49.592;8.662;2023-04-26T12:15:51;99966.91;;;14.87;37.70
11041;BME280;5573;49.592;8.662;2023-04-26T12:18:19;99962.44;;;15.45;39.48
11041;BME280;5573;49.592;8.662;2023-04-26T12:20:49;99965.84;;;15.60;38.97
11041;BME280;5573;49.592;8.662;2023-04-26T12:23:24;99964.47;;;15.41;35.96
11041;BME280;5573;49.592;8.662;2023-04-26T12:25:53;99961.66;;;14.37;35.40
11041;BME280;5573;49.592;8.662;2023-04-26T12:28:23;99962.03;;;14.35;38.74
11041;BME280;5573;49.592;8.662;2023-04-26T12:30:51;99964.81;;;15.02;39.42
11041;BME280;5573;49.592;8.662;2023-04-26T12:33:18;99963.34;;;14.87;36.42
11041;BME280;5573;49.592;8.662;2023-04-26T12:35:49;99948.44;;;15.18;37.60
11041;BME280;5573;49.592;8.662;2023-04-26T12:38:17;99957.66;;;15.50;37.10
11041;BME280;5573;49.592;8.662;2023-04-26T12:40:45;99951.59;;;15.20;36.26
11041;BME280;5573;49.592;8.662;2023-04-26T12:43:13;99959.66;;;15.04;37.24
11041;BME280;5573;49.592;8.662;2023-04-26T12:45:43;99947.69;;;15.14;37.66
11041;BME280;5573;49.592;8.662;2023-04-26T12:48:11;99951.13;;;15.25;38.86
11041;BME280;5573;49.592;8.662;2023-04-26T12:50:39;99954.16;;;14.97;38.84
11041;BME280;5573;49.592;8.662;2023-04-26T12:53:07;99957.78;;;14.20;37.03
11041;BME280;5573;49.592;8.662;2023-04-26T12:55:36;99951.63;;;13.83;38.02
11041;BME280;5573;49.592;8.662;2023-04-26T12:58:04;99952.84;;;13.65;39.82
11041;BME280;5573;49.592;8.662;2023-04-26T13:00:32;99949.66;;;13.70;40.20
11041;BME280;5573;49.592;8.662;2023-04-26T13:03:01;99945.25;;;13.94;39.99
11041;BME280;5573;49.592;8.662;2023-04-26T13:05:29;99946.25;;;14.32;41.05
11041;BME280;5573;49.592;8.662;2023-04-26T13:07:57;99949.69;;;14.58;41.65
11041;BME280;5573;49.592;8.662;2023-04-26T13:10:27;99951.50;;;14.82;39.45
11041;BME280;5573;49.592;8.662;2023-04-26T13:12:55;99953.03;;;14.91;38.52
11041;BME280;5573;49.592;8.662;2023-04-26T13:15:24;99957.72;;;15.39;39.04
11041;BME280;5573;49.592;8.662;2023-04-26T13:17:52;99950.41;;;15.59;39.15
11041;BME280;5573;49.592;8.662;2023-04-26T13:20:21;99957.72;;;15.42;39.29
11041;BME280;5573;49.592;8.662;2023-04-26T13:22:52;99949.91;;;15.30;39.13
11041;BME280;5573;49.592;8.662;2023-04-26T13:25:21;99945.13;;;15.34;38.95